Time;durP1;ratioP1;P1;durP2;ratioP2;P2;SDS_P1;SDS_P2;PMS_P1;PMS_P2;Temp;Humidity;BMP_temperature;BMP_pressure;BME280_temperature;BME280_humidity;BME280_pressure;Samples;Min_cycle;Max_cycle;Signal;HPM_P1;HPM_P2
2024/02/16 00:02:01;;;;;;;7.38;6.78;;;8.00;99.90;;;;;;5016023;28;20216;-63
2024/02/16 00:04:28;;;;;;;6.45;5.95;;;8.10;99.90;;;;;;5016633;28;20208;-63
2024/02/16 00:06:53;;;;;;;6.07;5.38;;;8.10;99.90;;;;;;5010492;28;20235;-62
2024/02/16 00:09:20;;;;;;;5.00;4.60;;;8.10;99.90;;;;;;5016563;28;20214;-62
2024/02/16 00:11:50;;;;;;;6.25;5.15;;;8.10;99.90;;;;;;5008340;28;20534;-63
2024/02/16 00:14:17;;;;;;;5.70;5.20;;;8.10;99.90;;;;;;5009668;28;20222;-62
2024/02/16 00:16:44;;;;;;;5.38;4.88;;;8.10;99.90;;;;;;5013462;28;20233;-61
2024/02/16 00:19:11;;;;;;;7.43;5.18;;;8.10;99.90;;;;;;5022082;28;20243;-62
2024/02/16 00:21:39;;;;;;;5.28;4.78;;;8.10;99.90;;;;;;5013327;28;20226;-63
2024/02/16 00:24:07;;;;;;;4.43;4.10;;;8.10;99.90;;;;;;5017485;28;20265;-62
2024/02/16 00:26:34;;;;;;;5.68;4.18;;;8.10;99.90;;;;;;5022844;28;20553;-63
2024/02/16 00:29:02;;;;;;;7.40;4.00;;;8.10;99.90;;;;;;5022048;28;20211;-62
2024/02/16 00:31:30;;;;;;;4.72;4.40;;;8.10;99.90;;;;;;5013544;28;20226;-63
2024/02/16 00:33:56;;;;;;;4.35;3.60;;;8.10;99.90;;;;;;5010410;28;20266;-62
2024/02/16 00:36:23;;;;;;;6.30;5.70;;;8.10;99.90;;;;;;5011476;28;20239;-63
2024/02/16 00:38:50;;;;;;;5.63;5.13;;;8.20;99.90;;;;;;5010484;28;20461;-62
2024/02/16 00:41:20;;;;;;;4.95;4.18;;;8.20;99.90;;;;;;5009091;28;20214;-62
2024/02/16 00:43:47;;;;;;;6.07;5.40;;;8.20;99.90;;;;;;5010734;28;20218;-62
2024/02/16 00:46:16;;;;;;;5.05;4.55;;;8.20;99.90;;;;;;5010603;28;20752;-62
2024/02/16 00:48:43;;;;;;;5.65;4.90;;;8.20;99.90;;;;;;5010374;28;20323;-62
2024/02/16 00:51:10;;;;;;;6.80;6.22;;;8.20;99.90;;;;;;5010873;28;20263;-62
2024/02/16 00:53:37;;;;;;;5.43;4.93;;;8.20;99.90;;;;;;5010021;28;20216;-62
2024/02/16 00:56:04;;;;;;;5.20;4.32;;;8.20;99.90;;;;;;5010538;28;20222;-62
2024/02/16 00:58:30;;;;;;;4.32;4.03;;;8.20;99.90;;;;;;5010481;28;20962;-63
2024/02/16 01:00:57;;;;;;;4.28;3.97;;;8.20;99.90;;;;;;5010633;28;20212;-62
2024/02/16 01:03:26;;;;;;;4.45;4.07;;;8.20;99.90;;;;;;5009540;28;20694;-63
2024/02/16 01:05:53;;;;;;;5.35;4.95;;;8.20;99.90;;;;;;5009993;28;20222;-62
2024/02/16 01:08:20;;;;;;;4.93;4.53;;;8.20;99.90;;;;;;5010483;28;20299;-61
2024/02/16 01:10:47;;;;;;;5.22;4.53;;;8.20;99.90;;;;;;5009885;28;20217;-62
2024/02/16 01:13:14;;;;;;;4.75;4.10;;;8.20;99.90;;;;;;5009847;28;20219;-62
2024/02/16 01:15:41;;;;;;;5.00;4.70;;;8.20;99.90;;;;;;5009834;28;20218;-62
2024/02/16 01:18:08;;;;;;;4.50;4.20;;;8.20;99.90;;;;;;5009923;28;20722;-62
2024/02/16 01:20:36;;;;;;;4.65;4.10;;;8.20;99.90;;;;;;5009854;28;20457;-62
2024/02/16 01:23:04;;;;;;;7.05;5.38;;;8.30;99.90;;;;;;5009670;28;20251;-62
2024/02/16 01:25:31;;;;;;;4.88;4.30;;;8.20;99.90;;;;;;5009814;28;20215;-61
2024/02/16 01:27:58;;;;;;;6.25;5.65;;;8.20;99.90;;;;;;5009866;28;20242;-62
2024/02/16 01:30:25;;;;;;;4.18;3.88;;;8.20;99.90;;;;;;5009744;28;20216;-62
2024/02/16 01:32:53;;;;;;;4.28;3.85;;;8.20;99.90;;;;;;5009707;28;20322;-62
2024/02/16 01:35:19;;;;;;;5.63;4.68;;;8.20;99.90;;;;;;5010050;28;20678;-62
2024/02/16 01:37:49;;;;;;;3.90;3.60;;;8.20;99.90;;;;;;5009885;28;20246;-62
2024/02/16 01:40:17;;;;;;;4.78;4.38;;;8.20;99.90;;;;;;5009695;28;20218;-62
2024/02/16 01:42:44;;;;;;;6.32;4.40;;;8.20;99.90;;;;;;5009258;28;20299;-62
2024/02/16 01:45:12;;;;;;;4.22;3.97;;;8.20;99.90;;;;;;5009566;28;20218;-62
2024/02/16 01:47:39;;;;;;;4.65;4.25;;;8.10;99.90;;;;;;5009666;28;20236;-62
2024/02/16 01:50:08;;;;;;;4.50;4.20;;;8.10;99.90;;;;;;5009539;28;20664;-62
2024/02/16 01:52:36;;;;;;;6.75;5.82;;;8.20;99.90;;;;;;5009046;28;20711;-62
2024/02/16 01:55:06;;;;;;;6.65;4.40;;;8.10;99.90;;;;;;5009435;28;20227;-63
2024/02/16 01:57:33;;;;;;;4.78;4.20;;;8.10;99.90;;;;;;5009301;28;20235;-62
2024/02/16 02:00:00;;;;;;;7.10;4.20;;;8.10;99.90;;;;;;5009431;28;20215;-62
2024/02/16 02:02:27;;;;;;;5.32;4.80;;;8.20;99.90;;;;;;5008563;28;20218;-62
2024/02/16 02:04:54;;;;;;;4.80;4.40;;;8.10;99.90;;;;;;5008582;28;20218;-62
2024/02/16 02:07:26;;;;;;;4.75;4.45;;;8.20;99.90;;;;;;5009121;28;20227;-62
2024/02/16 02:09:53;;;;;;;6.25;5.75;;;8.10;99.90;;;;;;5009285;28;20219;-62
2024/02/16 02:12:22;;;;;;;5.50;5.00;;;8.20;99.90;;;;;;5008555;28;20231;-62
2024/02/16 02:14:49;;;;;;;4.97;4.57;;;8.20;99.90;;;;;;5009495;28;20223;-62
2024/02/16 02:17:17;;;;;;;6.47;5.88;;;8.20;99.90;;;;;;5008438;28;20235;-62
2024/02/16 02:19:44;;;;;;;5.17;4.77;;;8.20;99.90;;;;;;5008382;28;20318;-62
2024/02/16 02:22:15;;;;;;;5.50;4.38;;;8.20;99.90;;;;;;5008607;28;20863;-61
2024/02/16 02:24:42;;;;;;;5.90;5.03;;;8.10;99.90;;;;;;5008982;28;20212;-62
2024/02/16 02:27:09;;;;;;;5.32;4.93;;;8.20;99.90;;;;;;5009107;28;20234;-62
2024/02/16 02:29:36;;;;;;;4.93;4.50;;;8.20;99.90;;;;;;5008814;28;20211;-62
2024/02/16 02:32:02;;;;;;;5.35;4.95;;;8.20;99.90;;;;;;5008305;28;20663;-62
2024/02/16 02:34:29;;;;;;;7.00;5.38;;;8.20;99.90;;;;;;5009060;28;20226;-62
2024/02/16 02:36:56;;;;;;;5.95;5.13;;;8.20;99.90;;;;;;5008133;28;20235;-61
2024/02/16 02:39:24;;;;;;;6.18;5.10;;;8.20;99.90;;;;;;5008931;28;20243;-62
2024/02/16 02:41:50;;;;;;;5.80;5.28;;;8.20;99.90;;;;;;5008814;28;20211;-62
2024/02/16 02:44:17;;;;;;;4.53;4.13;;;8.20;99.90;;;;;;5009074;28;20753;-62
2024/02/16 02:46:44;;;;;;;6.32;5.72;;;8.20;99.90;;;;;;5008641;28;20239;-62
2024/02/16 02:49:11;;;;;;;5.72;5.15;;;8.20;99.90;;;;;;5008578;28;20230;-62
2024/02/16 02:51:37;;;;;;;5.25;4.80;;;8.20;99.90;;;;;;5008021;28;20229;-62
2024/02/16 02:54:05;;;;;;;5.13;4.63;;;8.20;99.90;;;;;;5008798;28;20301;-62
2024/02/16 02:56:33;;;;;;;7.73;5.43;;;8.20;99.90;;;;;;5008467;28;20314;-62
2024/02/16 02:58:59;;;;;;;5.38;4.88;;;8.20;99.90;;;;;;5008436;28;20450;-62
2024/02/16 03:01:26;;;;;;;5.65;5.05;;;8.20;99.90;;;;;;5008023;28;20207;-62
2024/02/16 03:03:53;;;;;;;5.10;4.70;;;8.20;99.90;;;;;;5008600;28;20216;-62
2024/02/16 03:06:20;;;;;;;5.22;4.72;;;8.20;99.90;;;;;;5008261;28;20242;-62
2024/02/16 03:08:47;;;;;;;5.07;4.68;;;8.20;99.90;;;;;;5007809;28;20649;-62
2024/02/16 03:11:14;;;;;;;5.50;5.10;;;8.10;99.90;;;;;;5008562;28;20229;-62
2024/02/16 03:13:42;;;;;;;5.57;5.00;;;8.20;99.90;;;;;;5008211;28;20218;-62
2024/02/16 03:16:09;;;;;;;5.85;5.18;;;8.10;99.90;;;;;;5008369;28;20238;-62
2024/02/16 03:18:37;;;;;;;5.35;4.85;;;8.20;99.90;;;;;;5008354;28;20302;-62
2024/02/16 03:21:04;;;;;;;6.10;5.70;;;8.20;99.90;;;;;;5008457;28;20207;-62
2024/02/16 03:23:31;;;;;;;7.10;5.70;;;8.10;99.90;;;;;;5007959;28;20222;-63
2024/02/16 03:25:58;;;;;;;6.18;5.63;;;8.20;99.90;;;;;;5008241;28;20203;-62
2024/02/16 03:28:25;;;;;;;5.88;4.60;;;8.10;99.90;;;;;;5008319;28;20215;-61
2024/02/16 03:30:53;;;;;;;5.13;4.72;;;8.20;99.90;;;;;;5008275;28;20219;-62
2024/02/16 03:33:21;;;;;;;5.93;4.82;;;8.20;99.90;;;;;;5007636;28;20277;-62
2024/02/16 03:35:48;;;;;;;5.82;5.10;;;8.10;99.90;;;;;;5008476;28;20216;-62
2024/02/16 03:38:15;;;;;;;5.15;4.65;;;8.10;99.90;;;;;;5008184;28;20809;-62
2024/02/16 03:40:42;;;;;;;5.38;4.63;;;8.10;99.90;;;;;;5008229;28;20287;-61
2024/02/16 03:43:09;;;;;;;7.55;4.50;;;8.10;99.90;;;;;;5007873;28;20635;-62
2024/02/16 03:45:35;;;;;;;5.05;4.65;;;8.10;99.90;;;;;;5008238;28;20302;-62
2024/02/16 03:48:05;;;;;;;6.43;4.60;;;8.10;99.90;;;;;;5010844;28;20231;-63
2024/02/16 03:50:31;;;;;;;5.00;4.47;;;8.10;99.90;;;;;;5011998;28;20222;-62
2024/02/16 03:52:59;;;;;;;4.70;4.40;;;8.00;99.90;;;;;;5011331;28;20717;-62
2024/02/16 03:55:26;;;;;;;4.75;4.35;;;8.00;99.90;;;;;;5011705;28;20220;-62
2024/02/16 03:57:53;;;;;;;6.53;5.82;;;8.00;99.90;;;;;;5011738;28;20326;-62
2024/02/16 04:00:20;;;;;;;7.00;6.00;;;8.00;99.90;;;;;;5011367;28;20897;-62
2024/02/16 04:02:47;;;;;;;6.70;5.07;;;8.00;99.90;;;;;;5011026;28;20462;-62
2024/02/16 04:05:15;;;;;;;5.45;5.05;;;8.00;99.90;;;;;;5011574;28;20211;-61
2024/02/16 04:07:42;;;;;;;11.82;5.35;;;8.00;99.90;;;;;;5011663;28;20235;-62
2024/02/16 04:10:10;;;;;;;4.82;4.43;;;8.00;99.90;;;;;;5011370;28;20211;-63
2024/02/16 04:12:37;;;;;;;6.10;5.60;;;8.00;99.90;;;;;;5010914;28;20231;-62
2024/02/16 04:15:05;;;;;;;5.53;5.03;;;8.00;99.90;;;;;;5011228;28;20600;-62
2024/02/16 04:17:31;;;;;;;4.50;4.20;;;8.00;99.90;;;;;;5011265;28;20314;-61
2024/02/16 04:19:58;;;;;;;4.82;4.47;;;8.00;99.90;;;;;;5011118;28;20211;-61
2024/02/16 04:22:26;;;;;;;5.00;4.60;;;8.00;99.90;;;;;;5011015;28;20216;-62
2024/02/16 04:24:53;;;;;;;4.47;4.10;;;8.00;99.90;;;;;;5011319;28;20214;-62
2024/02/16 04:27:20;;;;;;;5.18;4.65;;;8.00;99.90;;;;;;5010822;28;20242;-63
2024/02/16 04:29:47;;;;;;;5.13;4.72;;;7.90;99.90;;;;;;5010821;28;20219;-62
2024/02/16 04:32:13;;;;;;;4.78;4.35;;;7.90;99.90;;;;;;5010284;28;20231;-62
2024/02/16 04:34:40;;;;;;;5.15;4.75;;;7.90;99.90;;;;;;5011124;28;20219;-62
2024/02/16 04:37:07;;;;;;;4.75;4.45;;;7.90;99.90;;;;;;5038516;22;20238;-65
2024/02/16 04:39:35;;;;;;;4.80;4.50;;;7.90;99.90;;;;;;5030526;28;20210;-65
2024/02/16 04:42:02;;;;;;;5.20;4.80;;;7.90;99.90;;;;;;5030034;28;20669;-65
2024/02/16 04:44:29;;;;;;;5.22;4.93;;;7.90;99.90;;;;;;5030413;28;20239;-65
2024/02/16 04:46:56;;;;;;;4.90;4.40;;;7.90;99.90;;;;;;5030503;28;20233;-65
2024/02/16 04:49:23;;;;;;;4.65;4.25;;;7.90;99.90;;;;;;5030608;28;20215;-65
2024/02/16 04:51:50;;;;;;;5.30;4.80;;;7.90;99.90;;;;;;5030291;28;20257;-65
2024/02/16 04:54:17;;;;;;;5.20;4.70;;;7.80;99.90;;;;;;5030784;28;20238;-65
2024/02/16 04:56:45;;;;;;;5.90;5.15;;;7.90;99.90;;;;;;5030276;28;21791;-65
2024/02/16 04:59:12;;;;;;;7.32;5.70;;;7.90;99.90;;;;;;5029380;28;20306;-65
2024/02/16 05:01:39;;;;;;;5.15;4.75;;;7.90;99.90;;;;;;5029811;28;20522;-65
2024/02/16 05:04:06;;;;;;;5.97;4.57;;;7.90;99.90;;;;;;5030218;28;20210;-64
2024/02/16 05:06:33;;;;;;;6.10;4.93;;;7.90;99.90;;;;;;5030205;28;20262;-65
2024/02/16 05:09:00;;;;;;;6.93;5.30;;;7.90;99.90;;;;;;5030095;28;20218;-64
2024/02/16 05:11:29;;;;;;;7.78;5.18;;;7.90;99.90;;;;;;5029666;28;20919;-64
2024/02/16 05:13:58;;;;;;;5.63;5.13;;;7.90;99.90;;;;;;5029896;28;20222;-65
2024/02/16 05:16:25;;;;;;;7.13;5.35;;;8.00;99.90;;;;;;5029871;28;20337;-65
2024/02/16 05:18:52;;;;;;;5.25;4.75;;;8.00;99.90;;;;;;5029781;28;20218;-64
2024/02/16 05:21:19;;;;;;;7.20;5.47;;;8.00;99.90;;;;;;5030056;28;20835;-65
2024/02/16 05:23:46;;;;;;;6.18;5.57;;;8.00;99.90;;;;;;5029937;28;20203;-64
2024/02/16 05:26:13;;;;;;;4.85;4.55;;;8.00;99.90;;;;;;5029993;28;20207;-65
2024/02/16 05:28:40;;;;;;;5.50;5.00;;;8.00;99.90;;;;;;5029897;28;20301;-65
2024/02/16 05:31:17;;;;;;;6.85;6.25;;;8.00;99.90;;;;;;5029794;28;20692;-65
2024/02/16 05:33:44;;;;;;;6.25;5.65;;;8.00;99.90;;;;;;5027589;28;20226;-65
2024/02/16 05:36:11;;;;;;;5.00;4.60;;;8.00;99.90;;;;;;5029450;28;20217;-64
2024/02/16 05:38:43;;;;;;;4.93;4.63;;;8.00;99.90;;;;;;5029398;28;20945;-64
2024/02/16 05:41:10;;;;;;;7.60;5.00;;;8.00;99.90;;;;;;5029520;28;20231;-65
2024/02/16 05:43:37;;;;;;;5.15;4.65;;;8.10;99.90;;;;;;5028834;28;20207;-64
2024/02/16 05:46:06;;;;;;;5.53;4.88;;;8.10;99.90;;;;;;5029677;28;20314;-65
2024/02/16 05:48:37;;;;;;;6.28;5.78;;;8.00;99.90;;;;;;5029308;28;20231;-65
2024/02/16 05:51:05;;;;;;;6.85;4.70;;;8.00;99.90;;;;;;5029436;28;20747;-65
2024/02/16 05:53:32;;;;;;;4.65;4.25;;;8.10;99.90;;;;;;5028754;28;20242;-65
2024/02/16 05:55:59;;;;;;;6.60;4.60;;;8.10;99.90;;;;;;5029326;28;20298;-64
2024/02/16 05:58:26;;;;;;;4.75;4.35;;;8.10;99.90;;;;;;5029338;28;20243;-65
2024/02/16 06:00:54;;;;;;;6.22;4.80;;;8.10;99.90;;;;;;5029300;28;20222;-65
2024/02/16 06:03:21;;;;;;;6.43;5.82;;;8.10;99.90;;;;;;5028953;28;20217;-65
2024/02/16 06:05:49;;;;;;;6.75;4.85;;;8.10;99.90;;;;;;5029487;28;20708;-65
2024/02/16 06:08:17;;;;;;;6.47;4.93;;;8.10;99.90;;;;;;5029206;28;20231;-64
2024/02/16 06:10:50;;;;;;;4.15;3.95;;;8.10;99.90;;;;;;5027868;28;20596;-64
2024/02/16 06:13:17;;;;;;;4.90;4.57;;;8.10;99.90;;;;;;5028455;28;20234;-65
2024/02/16 06:15:44;;;;;;;5.45;5.05;;;8.00;99.90;;;;;;5029107;28;20226;-65
2024/02/16 06:18:11;;;;;;;5.75;5.25;;;8.00;99.90;;;;;;5029001;28;20227;-65
2024/02/16 06:20:38;;;;;;;5.10;4.70;;;8.00;99.90;;;;;;5028780;28;20218;-65
2024/02/16 06:23:06;;;;;;;5.25;4.95;;;8.00;99.90;;;;;;5028330;28;20213;-65
2024/02/16 06:25:33;;;;;;;5.13;4.35;;;8.00;99.90;;;;;;5028619;28;20211;-65
2024/02/16 06:28:00;;;;;;;5.50;4.93;;;8.00;99.90;;;;;;5028972;28;20235;-65
2024/02/16 06:30:26;;;;;;;4.70;4.32;;;8.00;99.90;;;;;;5028686;28;20207;-65
2024/02/16 06:32:54;;;;;;;5.75;4.47;;;8.00;99.90;;;;;;5028418;28;20329;-65
2024/02/16 06:35:21;;;;;;;4.50;4.15;;;8.00;99.90;;;;;;5028770;28;20211;-65
2024/02/16 06:37:48;;;;;;;5.13;4.40;;;8.00;99.90;;;;;;5028463;28;20381;-64
2024/02/16 06:40:17;;;;;;;6.00;5.45;;;7.90;99.90;;;;;;5028477;28;20741;-65
2024/02/16 06:42:44;;;;;;;6.15;5.65;;;7.90;99.90;;;;;;5028192;28;20630;-65
2024/02/16 06:45:11;;;;;;;6.70;6.10;;;7.90;99.90;;;;;;5028656;28;20213;-65
2024/02/16 06:47:38;;;;;;;7.82;6.32;;;7.90;99.90;;;;;;5028592;28;20230;-65
2024/02/16 06:50:05;;;;;;;7.22;6.53;;;8.00;99.90;;;;;;5028361;28;20211;-64
2024/02/16 06:52:32;;;;;;;7.90;6.18;;;8.00;99.90;;;;;;5027804;28;20225;-65
2024/02/16 06:54:59;;;;;;;6.82;6.25;;;8.00;99.90;;;;;;5028640;28;20211;-64
2024/02/16 06:57:27;;;;;;;5.45;4.85;;;8.00;99.90;;;;;;5028379;28;20258;-65
2024/02/16 06:59:57;;;;;;;5.57;5.10;;;8.10;99.90;;;;;;5028358;28;20211;-65
2024/02/16 07:02:23;;;;;;;7.85;6.35;;;8.10;99.90;;;;;;5028223;28;20476;-65
2024/02/16 07:04:50;;;;;;;10.27;8.40;;;8.10;99.90;;;;;;5028348;28;20217;-65
2024/02/16 07:07:18;;;;;;;7.60;6.10;;;8.10;99.90;;;;;;5028636;28;20619;-65
2024/02/16 07:09:45;;;;;;;7.77;6.40;;;8.10;99.90;;;;;;5028285;28;20245;-65
2024/02/16 07:12:12;;;;;;;5.78;5.28;;;8.20;99.90;;;;;;5027768;28;20830;-65
2024/02/16 07:14:41;;;;;;;6.38;5.88;;;8.20;99.90;;;;;;5028311;28;20230;-65
2024/02/16 07:17:09;;;;;;;6.72;6.13;;;8.20;99.90;;;;;;5028350;28;20338;-65
2024/02/16 07:19:36;;;;;;;7.15;6.55;;;8.20;99.90;;;;;;5027929;28;20306;-65
2024/02/16 07:22:03;;;;;;;7.32;6.68;;;8.20;99.90;;;;;;5028853;28;20253;-65
2024/02/16 07:24:30;;;;;;;7.88;7.05;;;8.30;99.90;;;;;;5032179;28;20257;-64
2024/02/16 07:26:58;;;;;;;8.38;6.38;;;8.30;99.90;;;;;;5032100;28;20596;-64
2024/02/16 07:29:25;;;;;;;7.22;6.63;;;8.40;99.90;;;;;;5031943;28;20207;-65
2024/02/16 07:31:53;;;;;;;7.50;6.95;;;8.40;99.90;;;;;;5031637;28;20206;-64
2024/02/16 07:34:20;;;;;;;9.05;6.95;;;8.40;99.90;;;;;;5032307;28;20237;-65
2024/02/16 07:36:47;;;;;;;14.27;9.98;;;8.50;99.90;;;;;;5032048;28;20235;-65
2024/02/16 07:39:14;;;;;;;20.83;18.02;;;8.50;99.90;;;;;;5031829;28;20217;-64
2024/02/16 07:41:41;;;;;;;23.27;20.25;;;8.60;99.90;;;;;;5031283;28;20692;-64
2024/02/16 07:44:07;;;;;;;15.73;11.77;;;8.60;99.90;;;;;;5031583;28;20677;-65
2024/02/16 07:46:40;;;;;;;19.92;16.45;;;8.70;99.90;;;;;;5031557;28;20234;-65
2024/02/16 07:49:10;;;;;;;24.02;17.90;;;8.70;99.90;;;;;;5020601;28;20203;-65
2024/02/16 07:51:37;;;;;;;18.33;12.17;;;8.90;99.90;;;;;;5022008;28;20316;-65
2024/02/16 07:54:05;;;;;;;10.83;9.83;;;8.90;99.90;;;;;;5016364;28;20496;-64
2024/02/16 07:56:32;;;;;;;10.80;9.70;;;9.00;99.90;;;;;;5031047;28;20481;-65
2024/02/16 07:58:58;;;;;;;9.70;8.67;;;9.10;99.90;;;;;;5021876;28;20213;-64
2024/02/16 08:01:25;;;;;;;10.40;9.00;;;9.20;99.90;;;;;;5022584;28;20457;-64
2024/02/16 08:03:53;;;;;;;9.15;8.00;;;9.30;99.90;;;;;;5021717;28;20221;-64
2024/02/16 08:06:26;;;;;;;10.70;9.70;;;9.40;99.90;;;;;;5017706;28;20213;-65
2024/02/16 08:08:53;;;;;;;11.60;10.37;;;9.50;99.90;;;;;;5023439;28;20450;-65
2024/02/16 08:11:21;;;;;;;12.23;11.10;;;9.60;99.90;;;;;;5026267;28;20449;-64
2024/02/16 08:13:48;;;;;;;9.53;8.37;;;9.70;99.90;;;;;;5024159;28;21080;-65
2024/02/16 08:16:15;;;;;;;10.40;9.50;;;9.80;99.90;;;;;;5029168;28;20990;-65
2024/02/16 08:18:44;;;;;;;9.50;8.77;;;9.90;99.90;;;;;;5030739;28;20558;-65
2024/02/16 08:21:11;;;;;;;10.97;9.97;;;10.00;99.90;;;;;;5025886;28;20549;-65
2024/02/16 08:23:39;;;;;;;10.43;9.37;;;10.10;99.90;;;;;;5025803;28;20525;-64
2024/02/16 08:26:06;;;;;;;12.20;11.20;;;10.10;99.90;;;;;;5027428;28;20465;-65
2024/02/16 08:28:33;;;;;;;11.10;10.20;;;10.20;99.90;;;;;;5027942;28;20823;-65
2024/02/16 08:30:59;;;;;;;10.40;9.50;;;10.30;99.90;;;;;;5024034;28;20464;-65
2024/02/16 08:33:26;;;;;;;10.50;9.50;;;10.40;99.90;;;;;;5016662;28;21146;-65
2024/02/16 08:35:53;;;;;;;10.70;9.67;;;10.40;99.90;;;;;;5028864;28;20461;-65
2024/02/16 08:38:20;;;;;;;11.17;10.17;;;10.60;99.90;;;;;;5027199;28;20487;-65
2024/02/16 08:40:51;;;;;;;14.90;10.47;;;10.70;99.90;;;;;;5027014;28;20500;-65
2024/02/16 08:43:18;;;;;;;12.70;11.50;;;10.70;99.90;;;;;;5014757;28;20975;-65
2024/02/16 08:45:45;;;;;;;12.57;11.30;;;10.80;99.90;;;;;;5014178;28;20538;-65
2024/02/16 08:48:12;;;;;;;13.40;11.53;;;10.90;99.90;;;;;;5020533;28;20861;-65
2024/02/16 08:50:39;;;;;;;16.53;13.20;;;11.00;99.90;;;;;;5012582;28;20510;-64
2024/02/16 08:53:06;;;;;;;12.63;11.43;;;11.10;99.90;;;;;;5016279;28;20462;-65
2024/02/16 08:55:33;;;;;;;14.93;11.23;;;11.10;99.90;;;;;;5018004;28;20981;-65
2024/02/16 08:58:01;;;;;;;12.90;11.47;;;11.20;99.90;;;;;;5019465;28;20506;-65
2024/02/16 09:00:28;;;;;;;21.53;10.53;;;11.20;99.90;;;;;;5027625;28;20458;-65
2024/02/16 09:02:55;;;;;;;10.60;9.70;;;11.30;99.90;;;;;;5025130;28;21039;-65
2024/02/16 09:05:23;;;;;;;11.00;10.00;;;11.30;99.90;;;;;;5029594;28;20454;-65
2024/02/16 09:07:50;;;;;;;11.50;10.47;;;11.40;99.90;;;;;;5020320;28;20486;-65
2024/02/16 09:10:16;;;;;;;10.60;9.50;;;11.40;99.90;;;;;;5021178;28;20458;-65
2024/02/16 09:12:43;;;;;;;12.53;11.40;;;11.40;99.90;;;;;;5026521;28;20976;-65
2024/02/16 09:15:12;;;;;;;9.33;8.53;;;11.50;99.90;;;;;;5016552;28;20490;-65
2024/02/16 09:17:39;;;;;;;10.97;9.87;;;11.50;99.90;;;;;;5029342;28;20496;-65
2024/02/16 09:20:08;;;;;;;9.60;8.70;;;11.60;99.90;;;;;;5029174;28;20454;-65
2024/02/16 09:22:35;;;;;;;11.50;9.53;;;11.60;99.90;;;;;;5022483;28;20972;-65
2024/02/16 09:25:03;;;;;;;11.30;10.10;;;11.70;99.90;;;;;;5023220;28;20452;-65
2024/02/16 09:27:29;;;;;;;10.40;9.60;;;11.80;99.90;;;;;;5029451;28;20470;-65
2024/02/16 09:29:56;;;;;;;9.50;8.70;;;11.90;99.90;;;;;;5029277;28;20450;-65
2024/02/16 09:32:24;;;;;;;9.63;8.73;;;12.00;99.90;;;;;;5029052;28;20450;-65
2024/02/16 09:34:51;;;;;;;12.40;9.43;;;12.10;99.90;;;;;;5029271;28;20489;-65
2024/02/16 09:37:18;;;;;;;9.13;8.13;;;12.20;99.90;;;;;;5031026;28;20481;-65
2024/02/16 09:39:45;;;;;;;9.00;8.20;;;12.30;99.90;;;;;;5024030;28;20446;-65
2024/02/16 09:42:14;;;;;;;8.47;7.50;;;12.30;99.90;;;;;;5031384;28;20461;-65
2024/02/16 09:44:42;;;;;;;9.10;7.90;;;12.40;99.90;;;;;;5021801;28;20456;-66
2024/02/16 09:47:12;;;;;;;10.73;9.83;;;12.60;99.90;;;;;;5023164;28;20484;-66
2024/02/16 09:49:40;;;;;;;65.93;23.30;;;12.70;99.90;;;;;;5028033;28;20512;-66
2024/02/16 09:52:11;;;;;;;12.37;10.97;;;12.80;99.90;;;;;;5028367;28;20453;-66
2024/02/16 09:54:39;;;;;;;10.17;9.17;;;12.90;99.90;;;;;;5026168;28;20955;-66
2024/02/16 09:57:06;;;;;;;8.50;7.70;;;13.00;99.90;;;;;;5019012;28;20470;-65
2024/02/16 09:59:33;;;;;;;9.53;8.60;;;13.20;99.90;;;;;;5027900;28;20446;-66
2024/02/16 10:02:04;;;;;;;8.53;7.67;;;13.30;99.90;;;;;;5024044;28;20530;-66
2024/02/16 10:04:30;;;;;;;10.57;9.43;;;13.40;99.90;;;;;;5016375;28;20828;-64
2024/02/16 10:06:59;;;;;;;9.80;7.40;;;13.60;99.90;;;;;;5024119;28;20855;-65
2024/02/16 10:09:26;;;;;;;12.00;9.73;;;13.70;99.90;;;;;;5013586;28;20530;-65
2024/02/16 10:11:53;;;;;;;9.17;7.33;;;13.70;99.90;;;;;;5023366;28;20454;-63
2024/02/16 10:14:20;;;;;;;7.53;6.87;;;13.80;99.90;;;;;;5018836;28;20770;-66
2024/02/16 10:16:48;;;;;;;7.53;6.97;;;13.80;99.90;;;;;;5021460;28;20576;-65
2024/02/16 10:19:18;;;;;;;8.20;7.40;;;13.90;99.90;;;;;;5019720;28;20488;-65
2024/02/16 10:21:45;;;;;;;10.00;7.90;;;13.90;99.90;;;;;;5015117;28;20533;-66
2024/02/16 10:24:14;;;;;;;9.90;6.97;;;13.80;99.90;;;;;;5022553;28;20442;-66
2024/02/16 10:26:41;;;;;;;7.97;7.27;;;13.80;99.90;;;;;;5019321;28;21039;-66
2024/02/16 10:29:10;;;;;;;8.50;7.70;;;13.80;99.90;;;;;;5027681;28;20481;-66
2024/02/16 10:31:37;;;;;;;8.30;6.60;;;13.80;99.90;;;;;;5014217;28;20442;-65
2024/02/16 10:34:06;;;;;;;6.90;6.20;;;13.80;99.90;;;;;;5010421;28;20516;-66
2024/02/16 10:36:34;;;;;;;7.10;6.60;;;13.80;99.90;;;;;;5052764;22;20478;-65
2024/02/16 10:39:04;;;;;;;7.93;7.23;;;13.80;99.90;;;;;;5046119;28;20457;-63
2024/02/16 10:41:35;;;;;;;15.27;9.33;;;13.90;99.90;;;;;;5047594;28;20457;-63
2024/02/16 10:44:03;;;;;;;18.07;9.63;;;13.90;99.90;;;;;;5048115;28;20796;-64
2024/02/16 10:46:30;;;;;;;29.27;10.47;;;14.10;99.90;;;;;;5047646;28;20456;-63
2024/02/16 10:48:57;;;;;;;13.67;7.50;;;14.30;99.90;;;;;;5038346;28;20457;-63
2024/02/16 10:51:30;;;;;;;7.33;6.80;;;14.50;99.90;;;;;;5041496;28;20456;-64
2024/02/16 10:54:00;;;;;;;64.10;21.27;;;14.60;99.90;;;;;;5043707;28;20492;-63
2024/02/16 10:56:36;;;;;;;100.13;27.83;;;14.70;99.90;;;;;;5032572;28;21052;-64
2024/02/16 10:59:04;;;;;;;12.43;7.97;;;14.90;99.90;;;;;;5053977;28;20448;-63
2024/02/16 11:01:37;;;;;;;111.77;27.40;;;15.00;99.90;;;;;;5053587;28;20440;-64
2024/02/16 11:04:08;;;;;;;88.33;21.30;;;15.00;99.90;;;;;;5054289;28;20455;-63
2024/02/16 11:06:48;;;;;;;6.53;5.93;;;15.10;99.90;;;;;;5046398;28;20532;-64
2024/02/16 11:09:27;;;;;;;216.20;59.00;;;15.20;99.90;;;;;;5039845;28;20571;-63
2024/02/16 11:11:56;;;;;;;170.80;47.73;;;15.40;99.90;;;;;;5034815;28;20528;-64
2024/02/16 11:14:24;;;;;;;131.37;32.70;;;15.50;99.90;;;;;;5053588;28;20579;-64
2024/02/16 11:16:56;;;;;;;289.03;71.03;;;15.60;99.90;;;;;;5054390;28;20856;-64
2024/02/16 11:19:23;;;;;;;12.70;8.23;;;15.70;99.90;;;;;;5053852;28;20444;-64
2024/02/16 11:22:00;;;;;;;35.90;13.23;;;15.80;99.90;;;;;;5043511;28;20444;-64
2024/02/16 11:24:33;;;;;;;16.60;8.40;;;15.90;99.90;;;;;;5045558;28;20460;-64
2024/02/16 11:27:04;;;;;;;47.10;17.93;;;15.90;99.90;;;;;;5044163;28;20464;-64
2024/02/16 11:29:33;;;;;;;11.53;4.97;;;16.00;99.90;;;;;;5037842;28;20445;-62
2024/02/16 11:32:01;;;;;;;143.97;43.67;;;16.10;99.90;;;;;;5042880;28;22015;-63
2024/02/16 11:34:29;;;;;;;34.77;11.67;;;16.10;99.90;;;;;;5033637;28;20608;-63
2024/02/16 11:36:56;;;;;;;4.90;4.00;;;16.10;99.90;;;;;;5037456;28;21054;-63
2024/02/16 11:39:25;;;;;;;4.53;3.70;;;16.20;99.90;;;;;;5035336;28;20441;-62
2024/02/16 11:42:01;;;;;;;4.07;3.63;;;16.30;99.90;;;;;;5034091;28;20454;-64
2024/02/16 11:44:30;;;;;;;7.83;3.00;;;16.30;99.90;;;;;;5034369;28;20503;-63
2024/02/16 11:46:57;;;;;;;173.80;40.93;;;16.30;99.90;;;;;;5037851;28;20475;-64
2024/02/16 11:49:23;;;;;;;11.43;4.93;;;16.30;99.90;;;;;;5042417;28;20448;-63
2024/02/16 11:51:50;;;;;;;3.50;2.80;;;16.40;99.90;;;;;;5038895;28;20475;-63
2024/02/16 11:54:17;;;;;;;2.70;2.20;;;16.40;99.90;;;;;;5036530;28;20489;-63
2024/02/16 11:56:45;;;;;;;7.37;2.90;;;16.40;99.90;;;;;;5035694;28;20869;-64
2024/02/16 11:59:14;;;;;;;2.93;2.73;;;16.50;99.90;;;;;;5035588;28;20449;-64
2024/02/16 12:01:51;;;;;;;15.43;5.53;;;16.60;99.90;;;;;;5032767;28;20579;-63
2024/02/16 12:04:25;;;;;;;157.53;39.47;;;16.70;99.90;;;;;;5032825;28;20454;-63
2024/02/16 12:06:54;;;;;;;332.30;76.20;;;16.90;99.90;;;;;;5040871;28;20567;-64
2024/02/16 12:09:21;;;;;;;483.77;88.23;;;17.20;99.90;;;;;;5037479;28;20544;-63
2024/02/16 12:11:49;;;;;;;4.60;3.60;;;17.40;99.90;;;;;;5025345;28;20839;-64
2024/02/16 12:14:17;;;;;;;5.00;2.90;;;17.60;99.90;;;;;;5029810;28;20462;-63
2024/02/16 12:16:47;;;;;;;5.10;3.40;;;17.70;99.90;;;;;;5027983;28;20971;-64
2024/02/16 12:19:15;;;;;;;4.90;2.50;;;17.70;99.90;;;;;;5032023;28;20453;-64
2024/02/16 12:21:42;;;;;;;103.77;22.10;;;17.70;99.90;;;;;;5031243;28;20454;-63
2024/02/16 12:24:10;;;;;;;12.60;5.30;;;17.70;99.90;;;;;;5034218;28;20456;-64
2024/02/16 12:26:37;;;;;;;3.30;3.00;;;17.70;99.90;;;;;;5026959;28;21313;-64
2024/02/16 12:29:04;;;;;;;2.63;2.43;;;17.60;99.90;;;;;;5031099;28;20445;-64
2024/02/16 12:31:31;;;;;;;2.60;2.40;;;17.60;99.90;;;;;;5030594;28;20528;-63
2024/02/16 12:33:58;;;;;;;317.23;65.87;;;17.60;99.90;;;;;;5031243;28;20975;-64
2024/02/16 12:36:27;;;;;;;5.83;3.83;;;17.50;99.90;;;;;;5032788;28;20491;-64
2024/02/16 12:38:55;;;;;;;12.90;5.00;;;17.50;99.90;;;;;;5031494;28;20535;-63
2024/02/16 12:41:21;;;;;;;10.20;3.43;;;17.40;99.90;;;;;;5031042;28;20817;-63
2024/02/16 12:43:48;;;;;;;3.53;2.93;;;17.50;99.90;;;;;;5031379;28;20460;-64
2024/02/16 12:46:15;;;;;;;19.13;5.60;;;17.50;99.90;;;;;;5034333;28;20986;-63
2024/02/16 12:48:42;;;;;;;5.40;2.67;;;17.50;99.90;;;;;;5033874;28;20478;-64
2024/02/16 12:51:11;;;;;;;4.50;3.00;;;17.40;99.90;;;;;;5044618;28;20452;-63